createdAt,value
2019-03-03T00:00:36.719Z,96099.77
2019-03-03T00:03:04.260Z,96098.80
2019-03-03T00:05:31.607Z,96097.36
2019-03-03T00:07:58.897Z,96095.39
2019-03-03T00:10:26.225Z,96096.73
2019-03-03T00:12:53.600Z,96096.65
2019-03-03T00:15:20.959Z,96097.36
2019-03-03T00:17:47.967Z,96097.13
2019-03-03T00:20:15.002Z,96098.28
2019-03-03T00:22:42.048Z,96095.39
2019-03-03T00:25:09.333Z,96099.14
2019-03-03T00:27:36.649Z,96094.42
2019-03-03T00:30:07.842Z,96094.57
2019-03-03T00:32:35.304Z,96091.97
2019-03-03T00:35:03.301Z,96089.52
2019-03-03T00:37:30.692Z,96090.52
2019-03-03T00:39:58.388Z,96087.78
2019-03-03T00:42:25.436Z,96080.12
2019-03-03T00:44:52.474Z,96082.05
2019-03-03T00:47:19.810Z,96072.44
2019-03-03T00:49:47.163Z,96081.58
2019-03-03T00:52:14.366Z,96077.19
2019-03-03T00:54:41.397Z,96076.86
2019-03-03T00:57:08.436Z,96077.83
2019-03-03T00:59:35.765Z,96079.31
2019-03-03T01:02:03.117Z,96080.27
2019-03-03T01:04:30.169Z,96085.63
2019-03-03T01:06:58.419Z,96082.39
2019-03-03T01:09:25.713Z,96075.89
2019-03-03T01:11:52.748Z,96071.36
2019-03-03T01:14:19.799Z,96065.02
2019-03-03T01:16:47.092Z,96062.70
2019-03-03T01:19:14.399Z,96068.43
2019-03-03T01:21:41.435Z,96068.58
2019-03-03T01:24:08.482Z,96066.50
2019-03-03T01:26:35.766Z,96067.98
2019-03-03T01:29:02.813Z,96072.18
2019-03-03T01:31:30.096Z,96075.74
2019-03-03T01:33:57.394Z,96068.87
2019-03-03T01:36:24.428Z,96071.99
2019-03-03T01:38:51.721Z,96074.45
2019-03-03T01:41:19.000Z,96078.78
2019-03-03T01:43:46.055Z,96079.12
2019-03-03T01:46:13.082Z,96074.11
2019-03-03T01:48:40.130Z,96069.73
2019-03-03T01:51:07.407Z,96069.09
2019-03-03T01:53:34.813Z,96073.96
2019-03-03T01:56:02.093Z,96069.06
2019-03-03T01:58:29.479Z,96061.27
2019-03-03T02:00:56.508Z,96062.94
2019-03-03T02:03:23.925Z,96055.33
2019-03-03T02:05:51.026Z,96058.85
2019-03-03T02:08:18.055Z,96064.20
2019-03-03T02:10:45.348Z,96057.06
2019-03-03T02:13:12.636Z,96056.14
2019-03-03T02:15:39.720Z,96054.06
2019-03-03T02:18:06.992Z,96049.30
2019-03-03T02:20:34.288Z,96045.89
2019-03-03T02:23:01.564Z,96047.89
2019-03-03T02:25:28.857Z,96034.75
2019-03-03T02:27:55.889Z,96034.89
2019-03-03T02:30:23.198Z,96029.70
2019-03-03T02:32:50.483Z,96030.17
2019-03-03T02:35:17.800Z,96027.58
2019-03-03T02:37:45.077Z,96018.81
2019-03-03T02:40:12.413Z,96017.84
2019-03-03T02:42:39.767Z,96013.77
2019-03-03T02:45:06.816Z,96011.98
2019-03-03T02:47:35.162Z,96002.70
2019-03-03T02:50:02.210Z,96008.05
2019-03-03T02:52:29.494Z,96000.92
2019-03-03T02:54:56.555Z,96002.55
2019-03-03T02:57:23.894Z,95997.02
2019-03-03T02:59:50.949Z,96001.92
2019-03-03T03:02:18.256Z,95997.71
2019-03-03T03:04:45.304Z,95992.70
2019-03-03T03:07:12.329Z,95989.61
2019-03-03T03:09:39.646Z,95984.72
2019-03-03T03:12:06.697Z,95989.25
2019-03-03T03:14:42.439Z,95980.63
2019-03-03T03:17:09.730Z,95975.10
2019-03-03T03:19:37.840Z,95962.44
2019-03-03T03:22:05.123Z,95967.16
2019-03-03T03:24:32.429Z,95970.23
2019-03-03T03:26:59.464Z,95973.34
2019-03-03T03:29:26.520Z,95968.30
2019-03-03T03:31:53.542Z,95963.58
2019-03-03T03:34:20.591Z,95972.53
2019-03-03T03:36:47.639Z,95973.86
2019-03-03T03:39:14.926Z,95976.61
2019-03-03T03:41:42.207Z,95975.95
2019-03-03T03:44:09.301Z,95973.50
2019-03-03T03:46:36.345Z,95968.15
2019-03-03T03:49:03.629Z,95972.89
2019-03-03T03:51:30.936Z,95964.58
2019-03-03T03:53:58.698Z,95969.45
2019-03-03T03:56:25.997Z,95960.98
2019-03-03T03:58:53.030Z,95962.92
2019-03-03T04:01:20.077Z,95956.12
2019-03-03T04:03:47.713Z,95962.92
2019-03-03T04:06:14.761Z,95958.72
2019-03-03T04:08:42.126Z,95949.08
2019-03-03T04:11:09.470Z,95958.51
2019-03-03T04:13:36.502Z,95949.73
2019-03-03T04:16:03.885Z,95940.80
2019-03-03T04:18:31.225Z,95951.83
2019-03-03T04:20:58.592Z,95951.59
2019-03-03T04:23:25.933Z,95953.52
2019-03-03T04:25:53.235Z,95950.07
2019-03-03T04:28:20.265Z,95945.51
2019-03-03T04:30:47.313Z,95948.56
2019-03-03T04:33:14.346Z,95941.09
2019-03-03T04:35:41.681Z,95951.64
2019-03-03T04:38:08.712Z,95941.06
2019-03-03T04:40:36.003Z,95939.39
2019-03-03T04:43:03.037Z,95939.03
2019-03-03T04:45:30.080Z,95945.38
2019-03-03T04:47:57.122Z,95946.34
2019-03-03T04:50:24.483Z,95943.41
2019-03-03T04:52:51.786Z,95945.81
2019-03-03T04:55:18.818Z,95941.44
2019-03-03T04:57:45.869Z,95945.48
2019-03-03T05:00:12.911Z,95936.25
2019-03-03T05:02:39.964Z,95933.65
2019-03-03T05:05:06.998Z,95938.99
2019-03-03T05:07:34.317Z,95941.11
2019-03-03T05:10:02.624Z,95935.31
2019-03-03T05:12:30.373Z,95938.46
2019-03-03T05:14:57.420Z,95940.42
2019-03-03T05:17:24.469Z,95930.45
2019-03-03T05:19:51.749Z,95935.95
2019-03-03T05:22:18.796Z,95935.13
2019-03-03T05:24:46.126Z,95938.84
2019-03-03T05:27:13.429Z,95932.83
2019-03-03T05:29:40.730Z,95931.86
2019-03-03T05:32:07.783Z,95936.88
2019-03-03T05:34:34.817Z,95930.87
2019-03-03T05:37:01.880Z,95927.19
2019-03-03T05:39:28.900Z,95928.22
2019-03-03T05:41:55.955Z,95926.80
2019-03-03T05:44:23.324Z,95927.65
2019-03-03T05:46:50.677Z,95934.48
2019-03-03T05:49:17.969Z,95926.08
2019-03-03T05:51:45.285Z,95929.34
2019-03-03T05:54:12.324Z,95922.70
2019-03-03T05:56:44.913Z,95926.29
2019-03-03T05:59:11.946Z,95924.69
2019-03-03T06:01:38.993Z,95924.05
2019-03-03T06:04:06.364Z,95928.77
2019-03-03T06:06:33.396Z,95916.91
2019-03-03T06:09:00.445Z,95917.58
2019-03-03T06:11:29.148Z,95911.25
2019-03-03T06:13:56.504Z,95910.16
2019-03-03T06:16:23.737Z,95917.16
2019-03-03T06:18:50.777Z,95911.15
2019-03-03T06:21:17.821Z,95904.83
2019-03-03T06:23:45.233Z,95910.87
2019-03-03T06:26:12.277Z,95897.73
2019-03-03T06:28:39.323Z,95891.89
2019-03-03T06:31:06.361Z,95895.15
2019-03-03T06:33:33.412Z,95895.98
2019-03-03T06:36:00.750Z,95885.75
2019-03-03T06:38:27.806Z,95889.02
2019-03-03T06:40:54.847Z,95890.33
2019-03-03T06:43:21.898Z,95894.23
2019-03-03T06:45:48.941Z,95883.03
2019-03-03T06:48:16.303Z,95892.95
2019-03-03T06:50:43.343Z,95896.39
2019-03-03T06:53:10.720Z,95891.20
2019-03-03T06:55:38.113Z,95887.78
2019-03-03T06:58:05.125Z,95892.00
2019-03-03T07:00:32.160Z,95886.00
2019-03-03T07:02:59.509Z,95880.97
2019-03-03T07:05:26.541Z,95874.98
2019-03-03T07:07:53.584Z,95864.92
2019-03-03T07:10:21.370Z,95860.23
2019-03-03T07:12:48.733Z,95854.51
2019-03-03T07:15:16.045Z,95861.36
2019-03-03T07:17:43.085Z,95868.20
2019-03-03T07:20:10.484Z,95856.28
2019-03-03T07:22:37.531Z,95852.39
2019-03-03T07:25:04.888Z,95847.95
2019-03-03T07:27:31.933Z,95864.36
2019-03-03T07:29:58.986Z,95864.25
2019-03-03T07:32:26.277Z,95866.64
2019-03-03T07:34:53.720Z,95862.25
2019-03-03T07:37:20.754Z,95863.38
2019-03-03T07:39:47.806Z,95876.98
2019-03-03T07:42:15.093Z,95865.06
2019-03-03T07:44:43.360Z,95869.30
2019-03-03T07:47:10.656Z,95871.98
2019-03-03T07:49:39.120Z,95868.88
2019-03-03T07:52:06.339Z,95866.14
2019-03-03T07:54:36.288Z,95873.14
2019-03-03T07:57:04.674Z,95879.49
2019-03-03T07:59:32.072Z,95872.05
2019-03-03T08:02:00.339Z,95878.03
2019-03-03T08:04:27.539Z,95884.81
2019-03-03T08:06:54.768Z,95883.86
2019-03-03T08:09:22.974Z,95888.94
2019-03-03T08:11:51.218Z,95899.35
2019-03-03T08:14:19.425Z,95899.07
2019-03-03T08:16:47.780Z,95904.12
2019-03-03T08:19:15.083Z,95904.66
2019-03-03T08:21:43.303Z,95913.42
2019-03-03T08:24:10.568Z,95906.22
2019-03-03T08:26:39.005Z,95914.30
2019-03-03T08:29:06.204Z,95907.91
2019-03-03T08:31:33.243Z,95900.39
2019-03-03T08:34:01.421Z,95907.02
2019-03-03T08:36:28.654Z,95911.31
2019-03-03T08:38:55.826Z,95915.09
2019-03-03T08:41:24.596Z,95913.95
2019-03-03T08:43:53.028Z,95911.89
2019-03-03T08:46:20.252Z,95918.08
2019-03-03T08:48:48.418Z,95918.30
2019-03-03T08:51:17.275Z,95917.21
2019-03-03T08:53:46.531Z,95914.20
2019-03-03T08:56:15.267Z,95922.38
2019-03-03T08:58:42.437Z,95911.05
2019-03-03T09:01:10.622Z,95927.23
2019-03-03T09:03:38.781Z,95929.55
2019-03-03T09:06:06.299Z,95918.56
2019-03-03T09:08:34.516Z,95930.66
2019-03-03T09:11:02.711Z,95925.45
2019-03-03T09:13:34.089Z,95916.59
2019-03-03T09:16:03.719Z,95909.89
2019-03-03T09:18:31.487Z,95914.01
2019-03-03T09:20:58.687Z,95909.86
2019-03-03T09:23:26.939Z,95912.08
2019-03-03T09:25:55.137Z,95914.35
2019-03-03T09:28:23.183Z,95908.60
2019-03-03T09:30:51.748Z,95915.55
2019-03-03T09:33:19.512Z,95912.30
2019-03-03T09:35:46.704Z,95918.39
2019-03-03T09:38:14.631Z,95922.34
2019-03-03T09:40:43.213Z,95928.23
2019-03-03T09:43:18.171Z,95923.73
2019-03-03T09:48:26.215Z,95926.96
2019-03-03T09:50:55.789Z,95928.61
2019-03-03T09:53:22.953Z,95934.27
2019-03-03T09:55:50.222Z,95925.30
2019-03-03T09:58:18.483Z,95936.30
2019-03-03T10:00:45.648Z,95937.99
2019-03-03T10:03:12.881Z,95936.86
2019-03-03T10:05:40.052Z,95929.98
2019-03-03T10:08:07.979Z,95926.27
2019-03-03T10:10:35.430Z,95924.89
2019-03-03T10:13:03.797Z,95926.94
2019-03-03T10:15:32.168Z,95928.42
2019-03-03T10:18:00.571Z,95926.23
2019-03-03T10:20:28.836Z,95928.50
2019-03-03T10:22:57.682Z,95917.20
2019-03-03T10:25:25.833Z,95914.38
2019-03-03T10:27:54.030Z,95912.11
2019-03-03T10:30:22.184Z,95924.63
2019-03-03T10:32:49.499Z,95915.86
2019-03-03T10:35:16.690Z,95912.28
2019-03-03T10:37:43.966Z,95905.70
2019-03-03T10:40:12.118Z,95911.09
2019-03-03T10:42:39.428Z,95905.12
2019-03-03T10:45:07.314Z,95902.22
2019-03-03T10:47:35.641Z,95896.91
2019-03-03T10:50:04.076Z,95898.94
2019-03-03T10:52:32.863Z,95892.17
2019-03-03T10:55:00.320Z,95880.84
2019-03-03T10:57:30.398Z,95888.23
2019-03-03T10:59:57.717Z,95896.78
2019-03-03T11:02:25.349Z,95889.98
2019-03-03T11:04:53.125Z,95895.59
2019-03-03T11:07:20.318Z,95887.64
2019-03-03T11:09:47.553Z,95892.40
2019-03-03T11:12:15.083Z,95893.70
2019-03-03T11:14:42.259Z,95893.30
2019-03-03T11:17:10.461Z,95897.88
2019-03-03T11:19:37.687Z,95884.96
2019-03-03T11:22:04.958Z,95887.05
2019-03-03T11:24:34.622Z,95886.06
2019-03-03T11:27:01.819Z,95886.50
2019-03-03T11:29:29.974Z,95889.06
2019-03-03T11:31:57.226Z,95885.58
2019-03-03T11:34:25.427Z,95879.46
2019-03-03T11:36:53.675Z,95872.22
2019-03-03T11:39:21.005Z,95872.08
2019-03-03T11:41:48.184Z,95867.98
2019-03-03T11:44:15.460Z,95869.41
2019-03-03T11:46:43.706Z,95852.58
2019-03-03T11:49:11.245Z,95845.09
2019-03-03T11:51:39.010Z,95834.57
2019-03-03T11:54:06.310Z,95840.69
2019-03-03T11:56:33.543Z,95835.57
2019-03-03T11:59:00.715Z,95831.27
2019-03-03T12:01:27.943Z,95823.63
2019-03-03T12:03:57.524Z,95823.63
2019-03-03T12:06:25.972Z,95823.78
2019-03-03T12:08:54.230Z,95817.66
2019-03-03T12:11:22.488Z,95825.15
2019-03-03T12:13:49.760Z,95809.30
2019-03-03T12:16:17.000Z,95812.19
2019-03-03T12:18:44.263Z,95797.98
2019-03-03T12:21:12.799Z,95799.80
2019-03-03T12:23:40.254Z,95798.28
2019-03-03T12:26:07.434Z,95793.41
2019-03-03T12:28:35.072Z,95788.20
2019-03-03T12:31:02.834Z,95798.45
2019-03-03T12:33:30.193Z,95789.69
2019-03-03T12:35:57.366Z,95782.86
2019-03-03T12:38:25.559Z,95783.52
2019-03-03T12:40:53.715Z,95782.05
2019-03-03T12:43:20.990Z,95776.07
2019-03-03T12:45:48.226Z,95775.38
2019-03-03T12:48:15.498Z,95773.22
2019-03-03T12:50:44.034Z,95767.93
2019-03-03T12:53:11.795Z,95760.77
2019-03-03T12:55:39.001Z,95758.45
2019-03-03T12:58:07.533Z,95757.30
2019-03-03T13:00:34.734Z,95754.45
2019-03-03T13:03:02.382Z,95754.59
2019-03-03T13:05:30.564Z,95755.84
2019-03-03T13:07:58.822Z,95743.56
2019-03-03T13:10:26.100Z,95750.89
2019-03-03T13:12:53.810Z,95731.25
2019-03-03T13:15:21.001Z,95735.86
2019-03-03T13:17:49.168Z,95735.54
2019-03-03T13:20:16.434Z,95732.28
2019-03-03T13:22:44.690Z,95722.77
2019-03-03T13:25:12.890Z,95718.72
2019-03-03T13:27:41.147Z,95714.85
2019-03-03T13:30:09.594Z,95723.23
2019-03-03T13:32:36.775Z,95706.47
2019-03-03T13:35:04.048Z,95702.31
2019-03-03T13:37:32.486Z,95694.97
2019-03-03T13:40:00.038Z,95699.09
2019-03-03T13:42:27.218Z,95698.84
2019-03-03T13:44:54.534Z,95695.02
2019-03-03T13:47:21.724Z,95698.41
2019-03-03T13:49:49.926Z,95703.59
2019-03-03T13:52:18.079Z,95710.45
2019-03-03T13:54:47.660Z,95707.45
2019-03-03T13:57:14.825Z,95713.36
2019-03-03T13:59:44.410Z,95702.32
2019-03-03T14:02:11.591Z,95685.66
2019-03-03T14:04:40.068Z,95680.74
2019-03-03T14:07:12.514Z,95680.05
2019-03-03T14:09:39.715Z,95677.05
2019-03-03T14:12:08.156Z,95673.57
2019-03-03T14:14:35.355Z,95668.08
2019-03-03T14:17:03.213Z,95662.39
2019-03-03T14:19:31.071Z,95646.66
2019-03-03T14:21:58.337Z,95650.05
2019-03-03T14:24:27.799Z,95647.78
2019-03-03T14:26:55.005Z,95636.14
2019-03-03T14:29:23.247Z,95634.73
2019-03-03T14:31:51.804Z,95640.99
2019-03-03T14:34:18.838Z,95634.14
2019-03-03T14:36:47.075Z,95627.53
2019-03-03T14:39:14.308Z,95629.41
2019-03-03T14:41:42.759Z,95622.50
2019-03-03T14:44:10.521Z,95620.48
2019-03-03T14:46:37.725Z,95621.77
2019-03-03T14:49:04.953Z,95609.11
2019-03-03T14:51:32.225Z,95603.36
2019-03-03T14:54:00.386Z,95603.12
2019-03-03T14:56:27.659Z,95590.76
2019-03-03T14:58:56.166Z,95593.56
2019-03-03T15:01:23.390Z,95588.67
2019-03-03T15:03:55.797Z,95587.87
2019-03-03T15:06:24.707Z,95584.88
2019-03-03T15:08:53.225Z,95592.06
2019-03-03T15:11:21.777Z,95591.75
2019-03-03T15:13:49.460Z,95588.27
2019-03-03T15:16:18.024Z,95590.95
2019-03-03T15:18:46.328Z,95597.31
2019-03-03T15:21:13.592Z,95595.31
2019-03-03T15:23:41.754Z,95584.53
2019-03-03T15:26:10.239Z,95583.16
2019-03-03T15:28:38.689Z,95579.80
2019-03-03T15:31:05.881Z,95588.27
2019-03-03T15:33:33.112Z,95592.63
2019-03-03T15:36:00.294Z,95584.34
2019-03-03T15:38:28.008Z,95590.83
2019-03-03T15:40:55.448Z,95585.97
2019-03-03T15:43:23.945Z,95568.42
2019-03-03T15:45:51.134Z,95577.21
2019-03-03T15:48:18.380Z,95574.22
2019-03-03T15:50:46.570Z,95574.28
2019-03-03T15:53:15.003Z,95572.82
2019-03-03T15:55:42.191Z,95566.53
2019-03-03T15:58:09.456Z,95567.42
2019-03-03T16:00:36.686Z,95557.25
2019-03-03T16:03:03.859Z,95548.53
2019-03-03T16:05:31.086Z,95555.52
2019-03-03T16:07:58.364Z,95564.17
2019-03-03T16:10:26.795Z,95564.42
2019-03-03T16:12:54.252Z,95557.13
2019-03-03T16:15:22.020Z,95557.48
2019-03-03T16:17:49.212Z,95552.20
2019-03-03T16:20:17.368Z,95551.06
2019-03-03T16:22:44.645Z,95544.52
2019-03-03T16:25:13.180Z,95552.05
2019-03-03T16:27:40.373Z,95538.84
2019-03-03T16:30:09.847Z,95540.91
2019-03-03T16:32:37.141Z,95536.73
2019-03-03T16:35:04.388Z,95537.73
2019-03-03T16:37:32.603Z,95535.11
2019-03-03T16:40:02.454Z,95533.17
2019-03-03T16:42:29.725Z,95524.89
2019-03-03T16:44:57.894Z,95518.91
2019-03-03T16:47:25.154Z,95518.45
2019-03-03T16:49:53.313Z,95515.07
2019-03-03T16:52:21.503Z,95505.34
2019-03-03T16:54:48.732Z,95510.80
2019-03-03T16:57:15.906Z,95497.92
2019-03-03T16:59:44.065Z,95477.66
2019-03-03T17:02:12.253Z,95481.63
2019-03-03T17:04:40.408Z,95480.50
2019-03-03T17:07:07.584Z,95475.41
2019-03-03T17:09:35.837Z,95473.97
2019-03-03T17:12:04.031Z,95473.66
2019-03-03T17:14:31.265Z,95478.29
2019-03-03T17:16:59.456Z,95478.00
2019-03-03T17:19:26.688Z,95469.61
2019-03-03T17:21:53.852Z,95469.97
2019-03-03T17:24:22.032Z,95470.53
2019-03-03T17:26:50.190Z,95465.81
2019-03-03T17:29:17.465Z,95471.34
2019-03-03T17:31:44.694Z,95469.91
2019-03-03T17:34:13.244Z,95462.07
2019-03-03T17:36:40.440Z,95468.38
2019-03-03T17:39:07.703Z,95464.56
2019-03-03T17:41:35.444Z,95451.33
2019-03-03T17:44:02.616Z,95456.63
2019-03-03T17:46:29.855Z,95455.81
2019-03-03T17:48:58.401Z,95463.16
2019-03-03T17:51:26.611Z,95467.35
2019-03-03T17:53:54.801Z,95477.55
2019-03-03T17:56:22.111Z,95473.19
2019-03-03T17:58:51.458Z,95481.47
2019-03-03T18:01:18.689Z,95478.63
2019-03-03T18:03:47.002Z,95470.70
2019-03-03T18:06:16.165Z,95473.84
2019-03-03T18:08:44.366Z,95476.41
2019-03-03T18:11:12.517Z,95477.09
2019-03-03T19:29:30.750Z,95435.72
2019-03-03T19:49:45.123Z,95410.31
2019-03-03T19:52:12.888Z,95401.30
2019-03-03T19:54:42.137Z,95400.23
2019-03-03T19:57:10.055Z,95401.03
2019-03-03T19:59:37.256Z,95387.67
2019-03-03T20:02:06.714Z,95382.50
2019-03-03T20:04:37.759Z,95374.03
2019-03-03T20:12:37.240Z,95366.05
2019-03-03T20:15:04.500Z,95352.48
2019-03-03T20:17:33.875Z,95341.64
2019-03-03T20:22:37.693Z,95332.45
2019-03-03T20:25:10.669Z,95331.25
2019-03-03T20:27:39.332Z,95331.82
2019-03-03T20:32:47.162Z,95330.27
2019-03-03T20:37:51.024Z,95329.36
2019-03-03T20:40:21.848Z,95323.58
2019-03-03T20:42:50.242Z,95327.20
2019-03-03T20:45:20.891Z,95323.98
2019-03-03T20:47:47.925Z,95323.90
2019-03-03T20:50:16.104Z,95323.68
2019-03-03T20:52:47.168Z,95327.91
2019-03-03T20:57:47.085Z,95323.64
2019-03-03T21:05:21.136Z,95302.81
2019-03-03T21:07:51.737Z,95300.20
2019-03-03T21:10:17.529Z,95296.52
2019-03-03T21:12:44.910Z,95292.65
2019-03-03T21:17:47.295Z,95284.16
2019-03-03T21:20:14.343Z,95280.20
2019-03-03T21:22:41.378Z,95275.22
2019-03-03T21:25:08.426Z,95272.02
2019-03-03T21:27:35.773Z,95272.78
2019-03-03T21:30:02.818Z,95267.26
2019-03-03T21:32:30.948Z,95256.70
2019-03-03T21:34:57.984Z,95244.87
2019-03-03T21:37:25.296Z,95245.59
2019-03-03T21:39:52.333Z,95240.83
2019-03-03T21:42:20.453Z,95239.09
2019-03-03T21:44:47.490Z,95235.98
2019-03-03T21:47:14.542Z,95224.98
2019-03-03T21:49:41.578Z,95224.79
2019-03-03T21:52:08.632Z,95226.84
2019-03-03T21:54:35.961Z,95217.36
2019-03-03T21:57:03.344Z,95222.19
2019-03-03T21:59:30.695Z,95223.80
2019-03-03T22:01:57.745Z,95209.23
2019-03-03T22:04:25.080Z,95214.79
2019-03-03T22:06:52.451Z,95208.81
2019-03-03T22:09:19.488Z,95207.12
2019-03-03T22:11:47.141Z,95199.09
2019-03-03T22:14:14.505Z,95191.27
2019-03-03T22:16:41.545Z,95186.32
2019-03-03T22:19:08.902Z,95187.36
2019-03-03T22:21:35.949Z,95190.30
2019-03-03T22:24:02.982Z,95190.52
2019-03-03T22:26:30.056Z,95190.73
2019-03-03T22:28:57.067Z,95196.22
2019-03-03T22:31:24.125Z,95189.92
2019-03-03T22:33:51.160Z,95190.52
2019-03-03T22:36:18.209Z,95186.20
2019-03-03T22:38:45.588Z,95181.61
2019-03-03T22:41:12.960Z,95176.52
2019-03-03T22:43:40.316Z,95174.23
2019-03-03T22:46:07.370Z,95163.48
2019-03-03T22:48:34.414Z,95148.42
2019-03-03T22:51:01.757Z,95149.95
2019-03-03T22:53:29.108Z,95143.92
2019-03-03T22:55:56.416Z,95140.88
2019-03-03T22:58:23.456Z,95142.80
2019-03-03T23:00:50.763Z,95140.23
2019-03-03T23:03:19.702Z,95140.70
2019-03-03T23:05:46.733Z,95136.28
2019-03-03T23:08:14.076Z,95126.79
2019-03-03T23:10:41.114Z,95115.15
2019-03-03T23:13:08.167Z,95103.41
2019-03-03T23:15:35.509Z,95094.55
2019-03-03T23:18:02.559Z,95090.30
2019-03-03T23:20:29.598Z,95086.55
2019-03-03T23:22:56.647Z,95086.55
2019-03-03T23:25:24.006Z,95079.62
2019-03-03T23:27:51.062Z,95074.03
2019-03-03T23:30:18.416Z,95068.41
2019-03-03T23:35:23.173Z,95063.75
2019-03-03T23:37:50.217Z,95046.64
2019-03-03T23:40:17.250Z,95048.08
2019-03-03T23:42:44.608Z,95044.16
2019-03-03T23:45:12.710Z,95041.08
2019-03-03T23:47:40.001Z,95038.02
2019-03-03T23:50:07.032Z,95034.03
2019-03-03T23:52:34.083Z,95036.50
2019-03-03T23:55:01.114Z,95036.91
2019-03-03T23:57:28.165Z,95042.11
2019-03-03T23:59:55.202Z,95039.78
